sensor_id;sensor_type;location;lat;lon;timestamp;P1;durP1;ratioP1;P2;durP2;ratioP2
30173;SDS011;16985;50.814;8.530;2022-07-23T00:00:33;12.25;;;8.52;;
30173;SDS011;16985;50.814;8.530;2022-07-23T00:02:59;11.07;;;8.82;;
30173;SDS011;16985;50.814;8.530;2022-07-23T00:05:25;13.32;;;8.43;;
30173;SDS011;16985;50.814;8.530;2022-07-23T00:07:51;12.50;;;8.45;;
30173;SDS011;16985;50.814;8.530;2022-07-23T00:10:17;14.73;;;8.57;;
30173;SDS011;16985;50.814;8.530;2022-07-23T00:12:43;10.68;;;8.63;;
30173;SDS011;16985;50.814;8.530;2022-07-23T00:15:09;13.23;;;10.25;;
30173;SDS011;16985;50.814;8.530;2022-07-23T00:17:35;19.52;;;10.88;;
30173;SDS011;16985;50.814;8.530;2022-07-23T00:20:01;19.52;;;11.43;;
30173;SDS011;16985;50.814;8.530;2022-07-23T00:22:28;20.80;;;11.38;;
30173;SDS011;16985;50.814;8.530;2022-07-23T00:24:54;24.40;;;11.35;;
30173;SDS011;16985;50.814;8.530;2022-07-23T00:27:21;23.48;;;11.70;;
30173;SDS011;16985;50.814;8.530;2022-07-23T00:29:47;23.52;;;11.25;;
30173;SDS011;16985;50.814;8.530;2022-07-23T00:32:13;15.70;;;9.93;;
30173;SDS011;16985;50.814;8.530;2022-07-23T00:34:38;22.50;;;11.52;;
30173;SDS011;16985;50.814;8.530;2022-07-23T00:37:04;20.80;;;10.63;;
30173;SDS011;16985;50.814;8.530;2022-07-23T00:39:30;17.38;;;10.02;;
30173;SDS011;16985;50.814;8.530;2022-07-23T00:41:56;22.15;;;11.88;;
30173;SDS011;16985;50.814;8.530;2022-07-23T00:44:23;25.00;;;10.80;;
30173;SDS011;16985;50.814;8.530;2022-07-23T00:46:52;15.77;;;9.52;;
30173;SDS011;16985;50.814;8.530;2022-07-23T00:49:23;20.67;;;10.25;;
30173;SDS011;16985;50.814;8.530;2022-07-23T00:51:52;18.38;;;10.23;;
30173;SDS011;16985;50.814;8.530;2022-07-23T00:54:18;15.52;;;9.75;;
30173;SDS011;16985;50.814;8.530;2022-07-23T00:56:45;19.58;;;10.48;;
30173;SDS011;16985;50.814;8.530;2022-07-23T00:59:12;15.50;;;10.63;;
30173;SDS011;16985;50.814;8.530;2022-07-23T01:01:39;19.13;;;10.10;;
30173;SDS011;16985;50.814;8.530;2022-07-23T01:04:05;16.38;;;9.88;;
30173;SDS011;16985;50.814;8.530;2022-07-23T01:06:35;15.27;;;9.27;;
30173;SDS011;16985;50.814;8.530;2022-07-23T01:09:04;13.80;;;10.63;;
30173;SDS011;16985;50.814;8.530;2022-07-23T01:13:58;12.50;;;9.23;;
30173;SDS011;16985;50.814;8.530;2022-07-23T01:16:24;18.98;;;10.27;;
30173;SDS011;16985;50.814;8.530;2022-07-23T01:18:50;13.02;;;10.77;;
30173;SDS011;16985;50.814;8.530;2022-07-23T01:21:16;15.23;;;10.55;;
30173;SDS011;16985;50.814;8.530;2022-07-23T01:23:43;16.42;;;10.02;;
30173;SDS011;16985;50.814;8.530;2022-07-23T01:26:09;16.27;;;10.65;;
30173;SDS011;16985;50.814;8.530;2022-07-23T01:28:36;15.52;;;10.23;;
30173;SDS011;16985;50.814;8.530;2022-07-23T01:31:02;13.70;;;9.32;;
30173;SDS011;16985;50.814;8.530;2022-07-23T01:33:32;14.55;;;9.90;;
30173;SDS011;16985;50.814;8.530;2022-07-23T01:35:58;11.95;;;9.80;;
30173;SDS011;16985;50.814;8.530;2022-07-23T01:38:25;12.43;;;9.88;;
30173;SDS011;16985;50.814;8.530;2022-07-23T01:40:51;18.95;;;10.88;;
30173;SDS011;16985;50.814;8.530;2022-07-23T01:43:17;13.23;;;9.73;;
30173;SDS011;16985;50.814;8.530;2022-07-23T01:45:43;13.02;;;9.77;;
30173;SDS011;16985;50.814;8.530;2022-07-23T01:48:10;13.10;;;8.23;;
30173;SDS011;16985;50.814;8.530;2022-07-23T01:53:29;17.48;;;9.23;;
30173;SDS011;16985;50.814;8.530;2022-07-23T01:55:56;13.25;;;9.93;;
30173;SDS011;16985;50.814;8.530;2022-07-23T01:58:24;14.48;;;9.65;;
30173;SDS011;16985;50.814;8.530;2022-07-23T02:00:51;12.35;;;9.77;;
30173;SDS011;16985;50.814;8.530;2022-07-23T02:03:17;13.50;;;9.77;;
30173;SDS011;16985;50.814;8.530;2022-07-23T02:05:43;11.48;;;8.95;;
30173;SDS011;16985;50.814;8.530;2022-07-23T02:08:09;12.73;;;9.52;;
30173;SDS011;16985;50.814;8.530;2022-07-23T02:10:35;13.20;;;9.43;;
30173;SDS011;16985;50.814;8.530;2022-07-23T02:13:02;13.85;;;9.27;;
30173;SDS011;16985;50.814;8.530;2022-07-23T02:15:28;14.00;;;9.88;;
30173;SDS011;16985;50.814;8.530;2022-07-23T02:17:55;13.05;;;9.50;;
30173;SDS011;16985;50.814;8.530;2022-07-23T02:20:21;15.43;;;9.30;;
30173;SDS011;16985;50.814;8.530;2022-07-23T02:22:47;17.25;;;10.15;;
30173;SDS011;16985;50.814;8.530;2022-07-23T02:25:14;15.25;;;9.68;;
30173;SDS011;16985;50.814;8.530;2022-07-23T02:27:40;14.65;;;9.68;;
30173;SDS011;16985;50.814;8.530;2022-07-23T02:30:06;11.02;;;9.38;;
30173;SDS011;16985;50.814;8.530;2022-07-23T02:32:33;13.88;;;9.98;;
30173;SDS011;16985;50.814;8.530;2022-07-23T02:35:00;19.00;;;10.43;;
30173;SDS011;16985;50.814;8.530;2022-07-23T02:37:26;12.80;;;9.60;;
30173;SDS011;16985;50.814;8.530;2022-07-23T02:39:52;14.25;;;9.80;;
30173;SDS011;16985;50.814;8.530;2022-07-23T02:42:18;14.80;;;10.43;;
30173;SDS011;16985;50.814;8.530;2022-07-23T02:44:45;18.92;;;10.13;;
30173;SDS011;16985;50.814;8.530;2022-07-23T02:47:11;12.32;;;9.52;;
30173;SDS011;16985;50.814;8.530;2022-07-23T02:49:37;15.60;;;10.45;;
30173;SDS011;16985;50.814;8.530;2022-07-23T02:52:04;13.32;;;10.63;;
30173;SDS011;16985;50.814;8.530;2022-07-23T02:54:30;13.18;;;9.65;;
30173;SDS011;16985;50.814;8.530;2022-07-23T02:56:56;12.88;;;10.10;;
30173;SDS011;16985;50.814;8.530;2022-07-23T02:59:22;13.40;;;9.15;;
30173;SDS011;16985;50.814;8.530;2022-07-23T03:01:47;14.70;;;9.77;;
30173;SDS011;16985;50.814;8.530;2022-07-23T03:04:13;14.50;;;9.88;;
30173;SDS011;16985;50.814;8.530;2022-07-23T03:06:41;13.70;;;9.88;;
30173;SDS011;16985;50.814;8.530;2022-07-23T03:09:07;13.75;;;9.82;;
30173;SDS011;16985;50.814;8.530;2022-07-23T03:11:32;10.75;;;9.32;;
30173;SDS011;16985;50.814;8.530;2022-07-23T03:13:58;12.00;;;9.85;;
30173;SDS011;16985;50.814;8.530;2022-07-23T03:16:24;11.38;;;8.98;;
30173;SDS011;16985;50.814;8.530;2022-07-23T03:18:50;14.10;;;9.50;;
30173;SDS011;16985;50.814;8.530;2022-07-23T03:21:16;17.75;;;9.52;;
30173;SDS011;16985;50.814;8.530;2022-07-23T03:23:42;17.13;;;10.20;;
30173;SDS011;16985;50.814;8.530;2022-07-23T03:26:08;12.20;;;9.70;;
30173;SDS011;16985;50.814;8.530;2022-07-23T03:28:34;13.60;;;10.85;;
30173;SDS011;16985;50.814;8.530;2022-07-23T03:30:59;15.60;;;9.82;;
30173;SDS011;16985;50.814;8.530;2022-07-23T03:33:25;12.38;;;9.02;;
30173;SDS011;16985;50.814;8.530;2022-07-23T03:35:52;14.27;;;9.95;;
30173;SDS011;16985;50.814;8.530;2022-07-23T03:38:24;13.63;;;10.05;;
30173;SDS011;16985;50.814;8.530;2022-07-23T03:40:50;13.90;;;9.50;;
30173;SDS011;16985;50.814;8.530;2022-07-23T03:43:16;14.65;;;10.50;;
30173;SDS011;16985;50.814;8.530;2022-07-23T03:45:43;15.02;;;9.23;;
30173;SDS011;16985;50.814;8.530;2022-07-23T03:48:09;13.23;;;10.30;;
30173;SDS011;16985;50.814;8.530;2022-07-23T03:50:35;13.80;;;10.57;;
30173;SDS011;16985;50.814;8.530;2022-07-23T03:53:02;14.38;;;10.05;;
30173;SDS011;16985;50.814;8.530;2022-07-23T03:55:28;14.80;;;10.50;;
30173;SDS011;16985;50.814;8.530;2022-07-23T03:57:54;15.18;;;10.52;;
30173;SDS011;16985;50.814;8.530;2022-07-23T04:00:19;12.18;;;8.93;;
30173;SDS011;16985;50.814;8.530;2022-07-23T04:02:48;15.55;;;10.82;;
30173;SDS011;16985;50.814;8.530;2022-07-23T04:05:15;14.60;;;10.25;;
30173;SDS011;16985;50.814;8.530;2022-07-23T04:07:42;12.25;;;9.55;;
30173;SDS011;16985;50.814;8.530;2022-07-23T04:10:08;11.85;;;9.93;;
30173;SDS011;16985;50.814;8.530;2022-07-23T04:12:34;15.52;;;9.32;;
30173;SDS011;16985;50.814;8.530;2022-07-23T04:15:01;12.63;;;10.17;;
30173;SDS011;16985;50.814;8.530;2022-07-23T04:17:28;11.55;;;8.82;;
30173;SDS011;16985;50.814;8.530;2022-07-23T04:19:54;13.40;;;9.48;;
30173;SDS011;16985;50.814;8.530;2022-07-23T04:22:22;11.82;;;8.68;;
30173;SDS011;16985;50.814;8.530;2022-07-23T04:24:48;11.70;;;8.77;;
30173;SDS011;16985;50.814;8.530;2022-07-23T04:27:15;10.90;;;8.32;;
30173;SDS011;16985;50.814;8.530;2022-07-23T04:29:41;12.93;;;8.73;;
30173;SDS011;16985;50.814;8.530;2022-07-23T04:32:07;13.85;;;8.60;;
30173;SDS011;16985;50.814;8.530;2022-07-23T04:34:32;12.35;;;8.30;;
30173;SDS011;16985;50.814;8.530;2022-07-23T04:36:59;11.15;;;8.43;;
30173;SDS011;16985;50.814;8.530;2022-07-23T04:39:26;11.27;;;8.57;;
30173;SDS011;16985;50.814;8.530;2022-07-23T04:41:51;9.68;;;7.70;;
30173;SDS011;16985;50.814;8.530;2022-07-23T04:44:18;11.48;;;8.48;;
30173;SDS011;16985;50.814;8.530;2022-07-23T04:46:45;11.60;;;8.10;;
30173;SDS011;16985;50.814;8.530;2022-07-23T04:49:11;11.43;;;7.63;;
30173;SDS011;16985;50.814;8.530;2022-07-23T04:51:37;13.15;;;8.55;;
30173;SDS011;16985;50.814;8.530;2022-07-23T04:54:03;10.48;;;7.95;;
30173;SDS011;16985;50.814;8.530;2022-07-23T04:56:29;10.00;;;7.85;;
30173;SDS011;16985;50.814;8.530;2022-07-23T04:58:55;11.40;;;8.30;;
30173;SDS011;16985;50.814;8.530;2022-07-23T05:01:21;9.77;;;7.85;;
30173;SDS011;16985;50.814;8.530;2022-07-23T05:03:47;10.15;;;8.43;;
30173;SDS011;16985;50.814;8.530;2022-07-23T05:06:14;10.20;;;8.13;;
30173;SDS011;16985;50.814;8.530;2022-07-23T05:08:40;10.63;;;7.78;;
30173;SDS011;16985;50.814;8.530;2022-07-23T05:11:08;8.98;;;8.00;;
30173;SDS011;16985;50.814;8.530;2022-07-23T05:13:34;13.07;;;8.68;;
30173;SDS011;16985;50.814;8.530;2022-07-23T05:16:00;12.15;;;9.32;;
30173;SDS011;16985;50.814;8.530;2022-07-23T05:18:26;10.85;;;8.75;;
30173;SDS011;16985;50.814;8.530;2022-07-23T05:20:52;10.70;;;9.15;;
30173;SDS011;16985;50.814;8.530;2022-07-23T05:23:21;11.77;;;9.15;;
30173;SDS011;16985;50.814;8.530;2022-07-23T05:25:48;14.43;;;10.05;;
30173;SDS011;16985;50.814;8.530;2022-07-23T05:28:15;16.13;;;11.35;;
30173;SDS011;16985;50.814;8.530;2022-07-23T05:30:41;19.00;;;11.18;;
30173;SDS011;16985;50.814;8.530;2022-07-23T05:33:11;14.45;;;11.05;;
30173;SDS011;16985;50.814;8.530;2022-07-23T05:35:37;15.18;;;10.25;;
30173;SDS011;16985;50.814;8.530;2022-07-23T05:38:21;17.58;;;10.63;;
30173;SDS011;16985;50.814;8.530;2022-07-23T05:40:48;14.10;;;10.52;;
30173;SDS011;16985;50.814;8.530;2022-07-23T05:43:14;16.25;;;11.85;;
30173;SDS011;16985;50.814;8.530;2022-07-23T05:45:40;14.77;;;10.77;;
30173;SDS011;16985;50.814;8.530;2022-07-23T05:48:06;17.60;;;12.35;;
30173;SDS011;16985;50.814;8.530;2022-07-23T05:50:38;14.80;;;11.32;;
30173;SDS011;16985;50.814;8.530;2022-07-23T05:53:12;15.07;;;10.90;;
30173;SDS011;16985;50.814;8.530;2022-07-23T05:56:07;16.75;;;10.85;;
30173;SDS011;16985;50.814;8.530;2022-07-23T05:58:34;19.27;;;11.55;;
30173;SDS011;16985;50.814;8.530;2022-07-23T06:01:00;19.25;;;12.85;;
30173;SDS011;16985;50.814;8.530;2022-07-23T06:03:30;14.88;;;11.45;;
30173;SDS011;16985;50.814;8.530;2022-07-23T06:05:57;21.00;;;12.10;;
30173;SDS011;16985;50.814;8.530;2022-07-23T06:08:23;16.73;;;10.80;;
30173;SDS011;16985;50.814;8.530;2022-07-23T06:10:49;19.20;;;12.20;;
30173;SDS011;16985;50.814;8.530;2022-07-23T06:13:15;13.55;;;9.70;;
30173;SDS011;16985;50.814;8.530;2022-07-23T06:15:43;17.70;;;11.90;;
30173;SDS011;16985;50.814;8.530;2022-07-23T06:18:09;17.25;;;11.48;;
30173;SDS011;16985;50.814;8.530;2022-07-23T06:20:37;13.15;;;10.85;;
30173;SDS011;16985;50.814;8.530;2022-07-23T06:23:03;14.20;;;10.45;;
30173;SDS011;16985;50.814;8.530;2022-07-23T06:25:29;16.23;;;10.10;;
30173;SDS011;16985;50.814;8.530;2022-07-23T06:27:55;17.95;;;11.38;;
30173;SDS011;16985;50.814;8.530;2022-07-23T06:30:21;15.82;;;10.18;;
30173;SDS011;16985;50.814;8.530;2022-07-23T06:32:47;14.27;;;10.82;;
30173;SDS011;16985;50.814;8.530;2022-07-23T06:35:14;12.55;;;8.88;;
30173;SDS011;16985;50.814;8.530;2022-07-23T06:37:40;13.88;;;9.63;;
30173;SDS011;16985;50.814;8.530;2022-07-23T06:40:06;13.38;;;9.77;;
30173;SDS011;16985;50.814;8.530;2022-07-23T06:42:35;17.63;;;9.57;;
30173;SDS011;16985;50.814;8.530;2022-07-23T06:45:04;12.68;;;9.52;;
30173;SDS011;16985;50.814;8.530;2022-07-23T06:47:33;12.43;;;9.05;;
30173;SDS011;16985;50.814;8.530;2022-07-23T06:50:00;11.23;;;9.10;;
30173;SDS011;16985;50.814;8.530;2022-07-23T06:52:25;12.23;;;8.95;;
30173;SDS011;16985;50.814;8.530;2022-07-23T06:54:52;12.90;;;8.73;;
30173;SDS011;16985;50.814;8.530;2022-07-23T06:57:18;14.65;;;10.57;;
30173;SDS011;16985;50.814;8.530;2022-07-23T06:59:44;9.85;;;8.32;;
30173;SDS011;16985;50.814;8.530;2022-07-23T07:02:09;11.55;;;8.55;;
30173;SDS011;16985;50.814;8.530;2022-07-23T07:04:35;11.45;;;9.07;;
30173;SDS011;16985;50.814;8.530;2022-07-23T07:07:01;12.30;;;9.93;;
30173;SDS011;16985;50.814;8.530;2022-07-23T07:09:27;16.85;;;9.52;;
30173;SDS011;16985;50.814;8.530;2022-07-23T07:11:53;13.80;;;9.40;;
30173;SDS011;16985;50.814;8.530;2022-07-23T07:14:19;14.60;;;9.35;;
30173;SDS011;16985;50.814;8.530;2022-07-23T07:16:46;13.10;;;9.38;;
30173;SDS011;16985;50.814;8.530;2022-07-23T07:19:12;12.88;;;9.15;;
30173;SDS011;16985;50.814;8.530;2022-07-23T07:21:37;11.30;;;8.07;;
30173;SDS011;16985;50.814;8.530;2022-07-23T07:24:03;10.27;;;8.40;;
30173;SDS011;16985;50.814;8.530;2022-07-23T07:26:30;15.73;;;9.10;;
30173;SDS011;16985;50.814;8.530;2022-07-23T07:28:56;10.35;;;7.95;;
30173;SDS011;16985;50.814;8.530;2022-07-23T07:31:22;10.65;;;8.15;;
30173;SDS011;16985;50.814;8.530;2022-07-23T07:33:48;11.00;;;8.68;;
30173;SDS011;16985;50.814;8.530;2022-07-23T07:36:14;8.38;;;6.90;;
30173;SDS011;16985;50.814;8.530;2022-07-23T07:38:40;11.35;;;7.47;;
30173;SDS011;16985;50.814;8.530;2022-07-23T07:41:06;9.20;;;7.13;;
30173;SDS011;16985;50.814;8.530;2022-07-23T07:43:32;9.80;;;7.95;;
30173;SDS011;16985;50.814;8.530;2022-07-23T07:45:58;10.15;;;7.45;;
30173;SDS011;16985;50.814;8.530;2022-07-23T07:48:24;7.55;;;6.75;;
30173;SDS011;16985;50.814;8.530;2022-07-23T07:50:50;8.85;;;6.85;;
30173;SDS011;16985;50.814;8.530;2022-07-23T07:53:16;11.23;;;7.63;;
30173;SDS011;16985;50.814;8.530;2022-07-23T07:55:42;10.23;;;6.88;;
30173;SDS011;16985;50.814;8.530;2022-07-23T07:58:08;9.30;;;6.40;;
30173;SDS011;16985;50.814;8.530;2022-07-23T08:00:34;9.80;;;6.85;;
30173;SDS011;16985;50.814;8.530;2022-07-23T08:02:59;9.25;;;6.95;;
30173;SDS011;16985;50.814;8.530;2022-07-23T08:05:27;8.27;;;6.28;;
30173;SDS011;16985;50.814;8.530;2022-07-23T08:07:55;10.32;;;7.05;;
30173;SDS011;16985;50.814;8.530;2022-07-23T08:10:23;12.20;;;6.95;;
30173;SDS011;16985;50.814;8.530;2022-07-23T08:12:52;10.60;;;6.95;;
30173;SDS011;16985;50.814;8.530;2022-07-23T08:15:20;8.98;;;6.75;;
30173;SDS011;16985;50.814;8.530;2022-07-23T08:17:48;7.97;;;6.28;;
30173;SDS011;16985;50.814;8.530;2022-07-23T08:20:14;10.75;;;6.93;;
30173;SDS011;16985;50.814;8.530;2022-07-23T08:25:13;8.32;;;6.45;;
30173;SDS011;16985;50.814;8.530;2022-07-23T08:27:39;14.50;;;7.13;;
30173;SDS011;16985;50.814;8.530;2022-07-23T08:30:06;10.20;;;6.90;;
30173;SDS011;16985;50.814;8.530;2022-07-23T08:32:32;15.23;;;5.97;;
30173;SDS011;16985;50.814;8.530;2022-07-23T08:34:58;9.55;;;6.40;;
30173;SDS011;16985;50.814;8.530;2022-07-23T08:37:24;8.52;;;5.90;;
30173;SDS011;16985;50.814;8.530;2022-07-23T08:39:50;7.85;;;5.85;;
30173;SDS011;16985;50.814;8.530;2022-07-23T08:42:15;8.85;;;6.47;;
30173;SDS011;16985;50.814;8.530;2022-07-23T08:44:42;7.72;;;6.43;;
30173;SDS011;16985;50.814;8.530;2022-07-23T08:47:13;13.68;;;6.10;;
30173;SDS011;16985;50.814;8.530;2022-07-23T08:49:40;9.07;;;6.22;;
30173;SDS011;16985;50.814;8.530;2022-07-23T08:52:06;8.32;;;5.75;;
30173;SDS011;16985;50.814;8.530;2022-07-23T08:54:33;7.50;;;6.20;;
30173;SDS011;16985;50.814;8.530;2022-07-23T08:57:00;9.20;;;5.88;;
30173;SDS011;16985;50.814;8.530;2022-07-23T08:59:25;8.00;;;5.63;;
30173;SDS011;16985;50.814;8.530;2022-07-23T09:01:52;10.50;;;5.82;;
30173;SDS011;16985;50.814;8.530;2022-07-23T09:04:18;6.18;;;5.05;;
30173;SDS011;16985;50.814;8.530;2022-07-23T09:06:44;9.65;;;6.60;;
30173;SDS011;16985;50.814;8.530;2022-07-23T09:09:20;11.20;;;5.80;;
30173;SDS011;16985;50.814;8.530;2022-07-23T09:11:47;6.22;;;5.63;;
30173;SDS011;16985;50.814;8.530;2022-07-23T09:14:13;10.38;;;5.85;;
30173;SDS011;16985;50.814;8.530;2022-07-23T09:16:39;6.40;;;5.25;;
30173;SDS011;16985;50.814;8.530;2022-07-23T09:19:06;9.23;;;6.07;;
30173;SDS011;16985;50.814;8.530;2022-07-23T09:26:33;8.20;;;6.13;;
30173;SDS011;16985;50.814;8.530;2022-07-23T09:29:11;7.05;;;5.72;;
30173;SDS011;16985;50.814;8.530;2022-07-23T09:31:51;6.68;;;5.70;;
30173;SDS011;16985;50.814;8.530;2022-07-23T09:36:53;7.55;;;5.43;;
30173;SDS011;16985;50.814;8.530;2022-07-23T09:39:40;52.88;;;25.50;;
30173;SDS011;16985;50.814;8.530;2022-07-23T09:44:45;53.05;;;26.10;;
30173;SDS011;16985;50.814;8.530;2022-07-23T09:47:13;42.67;;;22.88;;
30173;SDS011;16985;50.814;8.530;2022-07-23T09:49:40;48.97;;;27.33;;
30173;SDS011;16985;50.814;8.530;2022-07-23T09:52:27;29.55;;;16.73;;
30173;SDS011;16985;50.814;8.530;2022-07-23T09:55:01;15.73;;;9.65;;
30173;SDS011;16985;50.814;8.530;2022-07-23T09:57:30;18.05;;;10.68;;
30173;SDS011;16985;50.814;8.530;2022-07-23T09:59:58;13.02;;;7.47;;
30173;SDS011;16985;50.814;8.530;2022-07-23T10:02:30;11.00;;;7.00;;
30173;SDS011;16985;50.814;8.530;2022-07-23T10:05:18;16.52;;;10.52;;
30173;SDS011;16985;50.814;8.530;2022-07-23T10:08:04;17.17;;;10.55;;
30173;SDS011;16985;50.814;8.530;2022-07-23T10:10:48;16.27;;;8.68;;
30173;SDS011;16985;50.814;8.530;2022-07-23T10:13:35;14.73;;;7.55;;
30173;SDS011;16985;50.814;8.530;2022-07-23T10:16:24;12.02;;;7.53;;
30173;SDS011;16985;50.814;8.530;2022-07-23T10:18:51;7.90;;;6.22;;
30173;SDS011;16985;50.814;8.530;2022-07-23T10:21:28;9.27;;;6.00;;
30173;SDS011;16985;50.814;8.530;2022-07-23T10:24:08;9.90;;;6.50;;
30173;SDS011;16985;50.814;8.530;2022-07-23T10:30:09;8.13;;;5.90;;
30173;SDS011;16985;50.814;8.530;2022-07-23T10:35:53;6.00;;;5.40;;
30173;SDS011;16985;50.814;8.530;2022-07-23T10:41:31;6.63;;;4.72;;
30173;SDS011;16985;50.814;8.530;2022-07-23T10:44:15;6.63;;;4.50;;
30173;SDS011;16985;50.814;8.530;2022-07-23T10:46:57;9.55;;;4.40;;
30173;SDS011;16985;50.814;8.530;2022-07-23T10:49:32;5.35;;;3.97;;
30173;SDS011;16985;50.814;8.530;2022-07-23T10:57:13;4.80;;;3.22;;
30173;SDS011;16985;50.814;8.530;2022-07-23T11:02:40;4.60;;;3.15;;
30173;SDS011;16985;50.814;8.530;2022-07-23T11:05:09;4.65;;;3.10;;
30173;SDS011;16985;50.814;8.530;2022-07-23T11:10:36;4.20;;;2.75;;
30173;SDS011;16985;50.814;8.530;2022-07-23T11:16:07;6.10;;;3.28;;
30173;SDS011;16985;50.814;8.530;2022-07-23T11:32:06;2.55;;;2.22;;
30173;SDS011;16985;50.814;8.530;2022-07-23T11:34:44;7.10;;;3.75;;
30173;SDS011;16985;50.814;8.530;2022-07-23T11:37:26;4.80;;;3.13;;
30173;SDS011;16985;50.814;8.530;2022-07-23T11:40:00;3.58;;;2.97;;
30173;SDS011;16985;50.814;8.530;2022-07-23T11:42:33;10.98;;;6.05;;
30173;SDS011;16985;50.814;8.530;2022-07-23T11:45:00;8.63;;;3.88;;
30173;SDS011;16985;50.814;8.530;2022-07-23T11:47:27;4.35;;;2.83;;
30173;SDS011;16985;50.814;8.530;2022-07-23T11:52:24;11.70;;;6.60;;
30173;SDS011;16985;50.814;8.530;2022-07-23T11:57:21;12.63;;;7.13;;
30173;SDS011;16985;50.814;8.530;2022-07-23T11:59:53;7.15;;;5.00;;
30173;SDS011;16985;50.814;8.530;2022-07-23T12:02:23;9.25;;;4.72;;
30173;SDS011;16985;50.814;8.530;2022-07-23T12:04:50;6.07;;;3.90;;
30173;SDS011;16985;50.814;8.530;2022-07-23T12:10:08;5.78;;;3.10;;
30173;SDS011;16985;50.814;8.530;2022-07-23T12:15:05;4.57;;;2.40;;
30173;SDS011;16985;50.814;8.530;2022-07-23T12:17:33;3.47;;;3.05;;
30173;SDS011;16985;50.814;8.530;2022-07-23T12:20:03;5.40;;;2.83;;
30173;SDS011;16985;50.814;8.530;2022-07-23T12:22:51;3.28;;;2.40;;
30173;SDS011;16985;50.814;8.530;2022-07-23T12:25:22;3.47;;;3.00;;
30173;SDS011;16985;50.814;8.530;2022-07-23T12:28:06;2.50;;;2.30;;
30173;SDS011;16985;50.814;8.530;2022-07-23T12:30:39;3.28;;;2.33;;
30173;SDS011;16985;50.814;8.530;2022-07-23T12:33:22;4.07;;;2.50;;
30173;SDS011;16985;50.814;8.530;2022-07-23T12:36:02;3.60;;;2.85;;
30173;SDS011;16985;50.814;8.530;2022-07-23T12:38:40;3.13;;;2.38;;
30173;SDS011;16985;50.814;8.530;2022-07-23T12:41:09;5.63;;;2.90;;
30173;SDS011;16985;50.814;8.530;2022-07-23T12:43:39;2.78;;;2.53;;
30173;SDS011;16985;50.814;8.530;2022-07-23T12:46:12;3.13;;;2.63;;
30173;SDS011;16985;50.814;8.530;2022-07-23T12:56:34;2.60;;;2.40;;
30173;SDS011;16985;50.814;8.530;2022-07-23T13:01:40;3.00;;;2.67;;
30173;SDS011;16985;50.814;8.530;2022-07-23T13:04:09;5.45;;;3.00;;
30173;SDS011;16985;50.814;8.530;2022-07-23T13:06:48;2.88;;;2.58;;
30173;SDS011;16985;50.814;8.530;2022-07-23T13:09:19;4.97;;;2.90;;
30173;SDS011;16985;50.814;8.530;2022-07-23T13:11:48;5.25;;;3.17;;
30173;SDS011;16985;50.814;8.530;2022-07-23T13:16:42;5.00;;;2.72;;
30173;SDS011;16985;50.814;8.530;2022-07-23T13:19:10;4.38;;;2.47;;
30173;SDS011;16985;50.814;8.530;2022-07-23T13:21:37;3.95;;;2.70;;
30173;SDS011;16985;50.814;8.530;2022-07-23T13:24:04;7.70;;;2.40;;
30173;SDS011;16985;50.814;8.530;2022-07-23T13:26:30;3.95;;;2.78;;
30173;SDS011;16985;50.814;8.530;2022-07-23T13:28:56;3.40;;;2.42;;
30173;SDS011;16985;50.814;8.530;2022-07-23T13:31:22;3.85;;;2.70;;
30173;SDS011;16985;50.814;8.530;2022-07-23T13:33:49;4.28;;;2.38;;
30173;SDS011;16985;50.814;8.530;2022-07-23T13:36:15;3.10;;;2.35;;
30173;SDS011;16985;50.814;8.530;2022-07-23T13:38:41;3.22;;;2.63;;
30173;SDS011;16985;50.814;8.530;2022-07-23T13:41:07;3.50;;;2.67;;
30173;SDS011;16985;50.814;8.530;2022-07-23T13:43:32;3.72;;;3.20;;
30173;SDS011;16985;50.814;8.530;2022-07-23T13:45:58;3.20;;;2.65;;
30173;SDS011;16985;50.814;8.530;2022-07-23T13:48:24;3.50;;;2.95;;
30173;SDS011;16985;50.814;8.530;2022-07-23T13:50:50;4.60;;;3.08;;
30173;SDS011;16985;50.814;8.530;2022-07-23T13:53:18;3.30;;;2.28;;
30173;SDS011;16985;50.814;8.530;2022-07-23T13:55:46;5.85;;;3.40;;
30173;SDS011;16985;50.814;8.530;2022-07-23T13:58:14;5.22;;;2.65;;
30173;SDS011;16985;50.814;8.530;2022-07-23T14:00:42;4.20;;;3.00;;
30173;SDS011;16985;50.814;8.530;2022-07-23T14:03:11;5.05;;;3.20;;
30173;SDS011;16985;50.814;8.530;2022-07-23T14:05:38;4.40;;;2.95;;
30173;SDS011;16985;50.814;8.530;2022-07-23T14:08:04;3.38;;;2.63;;
30173;SDS011;16985;50.814;8.530;2022-07-23T14:10:30;5.18;;;3.08;;
30173;SDS011;16985;50.814;8.530;2022-07-23T14:12:56;4.70;;;2.97;;
30173;SDS011;16985;50.814;8.530;2022-07-23T14:15:26;7.90;;;2.90;;
30173;SDS011;16985;50.814;8.530;2022-07-23T14:17:56;5.18;;;3.13;;
30173;SDS011;16985;50.814;8.530;2022-07-23T14:20:22;4.32;;;3.22;;
30173;SDS011;16985;50.814;8.530;2022-07-23T14:22:48;4.00;;;2.80;;
30173;SDS011;16985;50.814;8.530;2022-07-23T14:25:15;5.15;;;3.00;;
30173;SDS011;16985;50.814;8.530;2022-07-23T14:27:41;5.00;;;2.78;;
30173;SDS011;16985;50.814;8.530;2022-07-23T14:30:08;5.78;;;2.80;;
30173;SDS011;16985;50.814;8.530;2022-07-23T14:32:35;4.78;;;3.20;;
30173;SDS011;16985;50.814;8.530;2022-07-23T14:35:02;4.18;;;2.72;;
30173;SDS011;16985;50.814;8.530;2022-07-23T14:37:30;4.75;;;3.38;;
30173;SDS011;16985;50.814;8.530;2022-07-23T14:39:55;4.68;;;2.35;;
30173;SDS011;16985;50.814;8.530;2022-07-23T14:42:21;3.92;;;2.67;;
30173;SDS011;16985;50.814;8.530;2022-07-23T14:44:47;3.70;;;2.80;;
30173;SDS011;16985;50.814;8.530;2022-07-23T14:47:13;6.35;;;2.72;;
30173;SDS011;16985;50.814;8.530;2022-07-23T14:49:39;4.20;;;2.58;;
30173;SDS011;16985;50.814;8.530;2022-07-23T14:52:05;3.72;;;2.63;;
30173;SDS011;16985;50.814;8.530;2022-07-23T14:54:31;4.90;;;2.53;;
30173;SDS011;16985;50.814;8.530;2022-07-23T14:56:58;3.40;;;2.42;;
30173;SDS011;16985;50.814;8.530;2022-07-23T14:59:26;3.45;;;2.67;;
30173;SDS011;16985;50.814;8.530;2022-07-23T15:01:52;4.00;;;2.80;;
30173;SDS011;16985;50.814;8.530;2022-07-23T15:04:19;3.67;;;2.50;;
30173;SDS011;16985;50.814;8.530;2022-07-23T15:06:44;4.82;;;2.05;;
30173;SDS011;16985;50.814;8.530;2022-07-23T15:09:10;2.88;;;2.38;;
30173;SDS011;16985;50.814;8.530;2022-07-23T15:11:36;5.15;;;3.03;;
30173;SDS011;16985;50.814;8.530;2022-07-23T15:14:06;3.15;;;2.83;;
30173;SDS011;16985;50.814;8.530;2022-07-23T15:16:32;3.35;;;2.13;;
30173;SDS011;16985;50.814;8.530;2022-07-23T15:18:59;2.65;;;2.38;;
30173;SDS011;16985;50.814;8.530;2022-07-23T15:26:29;3.03;;;2.67;;
30173;SDS011;16985;50.814;8.530;2022-07-23T15:28:55;6.55;;;2.65;;
30173;SDS011;16985;50.814;8.530;2022-07-23T15:31:24;5.93;;;3.20;;
30173;SDS011;16985;50.814;8.530;2022-07-23T15:33:50;3.78;;;2.35;;
30173;SDS011;16985;50.814;8.530;2022-07-23T15:36:17;4.15;;;2.75;;
30173;SDS011;16985;50.814;8.530;2022-07-23T15:38:44;3.67;;;3.15;;
30173;SDS011;16985;50.814;8.530;2022-07-23T15:41:10;3.58;;;3.15;;
30173;SDS011;16985;50.814;8.530;2022-07-23T15:43:36;3.42;;;2.88;;
30173;SDS011;16985;50.814;8.530;2022-07-23T15:46:01;4.35;;;2.80;;
30173;SDS011;16985;50.814;8.530;2022-07-23T15:48:29;3.92;;;2.83;;
30173;SDS011;16985;50.814;8.530;2022-07-23T15:50:55;5.85;;;2.65;;
30173;SDS011;16985;50.814;8.530;2022-07-23T15:53:21;3.45;;;2.88;;
30173;SDS011;16985;50.814;8.530;2022-07-23T15:55:47;4.30;;;3.20;;
30173;SDS011;16985;50.814;8.530;2022-07-23T15:58:13;3.97;;;2.95;;
30173;SDS011;16985;50.814;8.530;2022-07-23T16:00:39;4.18;;;3.10;;
30173;SDS011;16985;50.814;8.530;2022-07-23T16:03:06;6.50;;;3.30;;